Time;durP1;ratioP1;P1;durP2;ratioP2;P2;SDS_P1;SDS_P2;PMS_P1;PMS_P2;Temp;Humidity;BMP_temperature;BMP_pressure;BME280_temperature;BME280_humidity;BME280_pressure;Samples;Min_cycle;Max_cycle;Signal;HPM_P1;HPM_P2
2022/01/26 00:00:42;;;;;;;3.33;0.80;;;;;;;;;;5033076;28;20130;-78
2022/01/26 00:06:05;;;;;;;4.38;1.02;;;;;;;;;;5019322;28;20095;-78
2022/01/26 00:08:32;;;;;;;4.57;0.70;;;;;;;;;;5015290;28;20018;-78
2022/01/26 00:10:59;;;;;;;3.25;0.75;;;;;;;;;;5013940;28;20029;-79
2022/01/26 00:13:27;;;;;;;2.42;0.60;;;;;;;;;;5014515;28;20490;-79
2022/01/26 00:15:55;;;;;;;4.47;0.60;;;;;;;;;;5015405;28;20024;-78
2022/01/26 00:18:23;;;;;;;5.97;0.90;;;;;;;;;;5014912;28;20030;-78
2022/01/26 00:20:58;;;;;;;4.00;0.80;;;;;;;;;;5015436;28;20104;-78
2022/01/26 00:29:10;;;;;;;1.50;0.70;;;;;;;;;;5014216;28;20037;-77
2022/01/26 00:40:02;;;;;;;;;;;;;;;;;;5014970;28;20116;-78
2022/01/26 00:42:37;;;;;;;3.42;0.63;;;;;;;;;;5014306;28;19910;-78
2022/01/26 00:45:08;;;;;;;5.00;0.82;;;;;;;;;;5021362;28;20486;-79
2022/01/26 00:47:35;;;;;;;5.07;0.70;;;;;;;;;;5033978;28;20021;-78
2022/01/26 00:50:06;;;;;;;3.80;0.82;;;;;;;;;;5033842;28;20029;-76
2022/01/26 00:52:39;;;;;;;2.88;0.50;;;;;;;;;;5031998;28;20022;-73
2022/01/26 00:55:13;;;;;;;3.85;0.68;;;;;;;;;;5033318;28;20065;-75
2022/01/26 00:57:41;;;;;;;4.28;1.15;;;;;;;;;;5033385;28;20025;-74
2022/01/26 01:00:09;;;;;;;3.13;0.77;;;;;;;;;;5031549;28;20028;-76
2022/01/26 01:02:37;;;;;;;1.63;0.35;;;;;;;;;;5033107;28;20064;-75
2022/01/26 01:05:12;;;;;;;1.95;0.50;;;;;;;;;;5031598;28;20494;-75
2022/01/26 01:07:41;;;;;;;3.63;0.70;;;;;;;;;;5033124;28;20017;-77
2022/01/26 01:10:09;;;;;;;2.65;0.90;;;;;;;;;;5031577;28;20021;-75
2022/01/26 01:12:42;;;;;;;4.25;0.43;;;;;;;;;;5031692;28;20017;-76
2022/01/26 01:15:09;;;;;;;1.95;0.50;;;;;;;;;;5031757;28;20163;-77
2022/01/26 01:17:41;;;;;;;3.42;0.50;;;;;;;;;;5031832;28;20367;-77
2022/01/26 01:22:52;;;;;;;1.75;0.60;;;;;;;;;;5032882;28;20109;-78
2022/01/26 01:28:21;;;;;;;2.88;0.82;;;;;;;;;;5032995;28;20522;-77
2022/01/26 01:30:54;;;;;;;2.47;0.70;;;;;;;;;;5032859;28;20024;-76
2022/01/26 01:33:28;;;;;;;4.00;0.60;;;;;;;;;;5032972;28;20032;-77
2022/01/26 01:35:57;;;;;;;3.10;1.00;;;;;;;;;;5031632;28;20033;-77
2022/01/26 01:38:27;;;;;;;3.28;0.95;;;;;;;;;;5032830;28;20021;-76
2022/01/26 01:40:55;;;;;;;3.60;0.70;;;;;;;;;;5032736;28;20401;-76
2022/01/26 01:43:23;;;;;;;5.40;0.70;;;;;;;;;;5032730;28;20032;-76
2022/01/26 01:45:52;;;;;;;4.45;0.77;;;;;;;;;;5031328;28;20038;-76
2022/01/26 01:48:23;;;;;;;6.93;5.50;;;;;;;;;;5031302;28;20390;-77
2022/01/26 01:50:52;;;;;;;4.35;0.70;;;;;;;;;;5031376;28;20018;-78
2022/01/26 01:53:31;;;;;;;1.45;0.40;;;;;;;;;;5031521;28;20394;-78
2022/01/26 01:55:59;;;;;;;5.55;4.03;;;;;;;;;;5031222;28;20052;-76
2022/01/26 01:58:27;;;;;;;3.35;1.90;;;;;;;;;;5032971;28;20071;-78
2022/01/26 02:00:54;;;;;;;3.22;1.75;;;;;;;;;;5032584;28;20025;-77
2022/01/26 02:03:21;;;;;;;2.92;0.90;;;;;;;;;;5031176;28;20044;-77
2022/01/26 02:05:49;;;;;;;5.28;2.45;;;;;;;;;;5032527;28;20025;-76
2022/01/26 02:08:16;;;;;;;3.40;0.77;;;;;;;;;;5031461;28;20026;-77
2022/01/26 02:10:44;;;;;;;3.65;0.77;;;;;;;;;;5031178;28;20394;-76
2022/01/26 02:13:25;;;;;;;2.40;0.80;;;;;;;;;;5035187;28;20014;-77
2022/01/26 02:16:06;;;;;;;4.57;1.70;;;;;;;;;;5036164;28;20026;-76
2022/01/26 02:21:24;;;;;;;4.30;2.08;;;;;;;;;;5035980;28;20429;-76
2022/01/26 02:57:40;;;;;;;3.50;0.70;;;29.50;99.90;;;;;;5033291;28;20426;-77
2022/01/26 03:05:01;;;;;;;5.05;0.65;;;29.60;99.90;;;;;;5035201;28;20033;-76
2022/01/26 03:07:40;;;;;;;;;;;29.20;99.90;;;;;;5034443;28;20120;-77
2022/01/26 03:10:21;;;;;;;3.10;0.60;;;29.40;99.90;;;;;;5035247;28;19955;-77
2022/01/26 03:13:02;;;;;;;2.25;0.50;;;29.40;99.90;;;;;;5034052;28;20041;-76
2022/01/26 03:15:55;;;;;;;3.85;0.73;;;29.30;99.90;;;;;;5033992;28;20041;-77
2022/01/26 03:20:47;;;;;;;4.82;0.55;;;29.60;99.90;;;;;;5035255;28;20017;-77
2022/01/26 03:32:00;;;;;;;3.42;1.05;;;29.40;99.90;;;;;;5035164;28;20079;-75
2022/01/26 03:34:19;;;;;;;3.13;0.70;;;29.40;99.90;;;;;;5034564;28;20505;-76
2022/01/26 03:36:54;;;;;;;6.18;0.85;;;28.90;99.90;;;;;;5034745;28;20025;-76
2022/01/26 03:39:24;;;;;;;3.47;0.60;;;28.60;99.90;;;;;;5033369;28;20029;-76
2022/01/26 03:42:02;;;;;;;4.20;0.60;;;29.00;99.90;;;;;;5034747;28;20447;-77
2022/01/26 03:44:29;;;;;;;3.22;0.50;;;29.10;99.90;;;;;;5032986;28;20030;-77
2022/01/26 03:46:57;;;;;;;3.50;0.80;;;29.40;99.90;;;;;;5033383;28;20036;-75
2022/01/26 03:49:24;;;;;;;4.03;0.70;;;29.10;99.90;;;;;;5034683;28;20021;-77
2022/01/26 03:51:52;;;;;;;3.85;1.00;;;29.30;99.90;;;;;;5033229;28;20033;-77
2022/01/26 03:54:20;;;;;;;2.90;0.70;;;29.30;99.90;;;;;;5034354;28;20018;-76
2022/01/26 03:56:47;;;;;;;2.70;0.50;;;29.30;99.90;;;;;;5034488;28;20497;-77
2022/01/26 03:59:15;;;;;;;2.33;0.50;;;29.00;99.90;;;;;;5033098;28;20112;-78
2022/01/26 04:01:42;;;;;;;2.70;0.60;;;29.20;99.90;;;;;;5032949;28;20025;-77
2022/01/26 04:04:10;;;;;;;1.80;0.50;;;29.50;99.90;;;;;;5034051;28;20033;-76
2022/01/26 04:06:38;;;;;;;2.70;0.40;;;29.10;99.90;;;;;;5034457;28;20028;-77
2022/01/26 04:09:08;;;;;;;3.20;0.55;;;29.50;99.90;;;;;;5034189;28;20021;-77
2022/01/26 04:11:42;;;;;;;5.25;0.75;;;29.30;99.90;;;;;;5033089;28;20053;-77
2022/01/26 04:14:16;;;;;;;2.47;0.57;;;29.20;99.90;;;;;;5034344;28;20025;-77
2022/01/26 04:16:44;;;;;;;2.85;0.40;;;29.30;99.90;;;;;;5032862;28;20030;-77
2022/01/26 04:19:11;;;;;;;3.38;0.47;;;29.30;99.90;;;;;;5034217;28;20080;-77
2022/01/26 04:24:19;;;;;;;3.08;0.40;;;29.30;99.90;;;;;;5033754;28;20034;-77
2022/01/26 04:26:56;;;;;;;3.20;0.60;;;29.30;99.90;;;;;;5034024;28;20104;-77
2022/01/26 04:29:28;;;;;;;3.95;0.60;;;29.30;99.90;;;;;;5034313;28;20017;-77
2022/01/26 04:31:56;;;;;;;1.33;0.38;;;29.70;99.90;;;;;;5034060;28;20105;-77
2022/01/26 04:34:24;;;;;;;2.80;0.63;;;29.60;99.90;;;;;;5033272;28;20033;-77
2022/01/26 04:37:05;;;;;;;4.72;0.52;;;29.20;99.90;;;;;;5033947;28;20478;-77
2022/01/26 04:39:42;;;;;;;2.15;0.50;;;29.30;99.90;;;;;;5032896;28;20087;-77
2022/01/26 04:42:24;;;;;;;2.90;0.63;;;29.20;99.90;;;;;;5034316;28;20040;-77
2022/01/26 04:44:59;;;;;;;2.58;0.50;;;28.90;99.90;;;;;;5033807;28;20037;-77
2022/01/26 04:47:26;;;;;;;3.53;0.50;;;29.20;99.90;;;;;;5033782;28;20053;-78
2022/01/26 04:49:53;;;;;;;2.42;0.63;;;29.10;99.90;;;;;;5032552;28;20112;-77
2022/01/26 04:52:21;;;;;;;2.40;0.50;;;29.20;99.90;;;;;;5032311;28;20026;-77
2022/01/26 04:54:49;;;;;;;2.33;0.40;;;29.20;99.90;;;;;;5033258;28;20041;-76
2022/01/26 04:57:17;;;;;;;3.97;0.40;;;29.20;99.90;;;;;;5033480;28;20367;-76
2022/01/26 04:59:44;;;;;;;3.35;0.50;;;29.50;99.90;;;;;;5031930;28;20029;-77
2022/01/26 05:02:11;;;;;;;3.60;0.60;;;28.90;99.90;;;;;;5032157;28;20095;-77
2022/01/26 05:04:39;;;;;;;2.42;0.38;;;28.90;99.90;;;;;;5033029;28;20029;-77
2022/01/26 05:07:06;;;;;;;2.47;0.50;;;28.80;99.90;;;;;;5033391;28;20025;-77
2022/01/26 05:09:36;;;;;;;3.65;0.40;;;28.90;99.90;;;;;;5033709;28;20127;-77
2022/01/26 05:12:04;;;;;;;2.67;0.30;;;28.90;99.90;;;;;;5032050;28;20021;-77
2022/01/26 05:14:32;;;;;;;3.42;0.50;;;29.00;99.90;;;;;;5033208;28;20108;-76
2022/01/26 05:16:59;;;;;;;1.60;0.40;;;29.00;99.90;;;;;;5033096;28;20022;-77
2022/01/26 05:19:27;;;;;;;3.50;0.40;;;29.00;99.90;;;;;;5031799;28;20117;-75
2022/01/26 05:21:54;;;;;;;3.88;0.50;;;28.90;99.90;;;;;;5032920;28;20116;-76
2022/01/26 05:24:22;;;;;;;1.67;0.47;;;28.90;99.90;;;;;;5032820;28;20032;-76
2022/01/26 05:26:49;;;;;;;4.10;0.50;;;28.60;99.90;;;;;;5031627;28;20083;-76
2022/01/26 05:29:17;;;;;;;3.30;0.57;;;28.60;99.90;;;;;;5032980;28;20021;-76
2022/01/26 05:31:44;;;;;;;2.30;0.40;;;28.90;99.90;;;;;;5032811;28;20013;-76
2022/01/26 05:34:11;;;;;;;1.55;0.32;;;29.20;99.90;;;;;;5031508;28;20528;-76
2022/01/26 05:36:38;;;;;;;2.45;0.35;;;29.00;99.90;;;;;;5031551;28;20112;-77
2022/01/26 05:39:06;;;;;;;3.60;0.60;;;29.30;99.90;;;;;;5032896;28;20439;-76
2022/01/26 05:41:33;;;;;;;1.67;0.40;;;29.00;99.90;;;;;;5031533;28;20036;-78
2022/01/26 05:44:01;;;;;;;2.88;0.50;;;29.00;99.90;;;;;;5032838;28;20025;-77
2022/01/26 05:46:38;;;;;;;1.92;0.30;;;29.00;99.90;;;;;;5034417;28;20045;-77
2022/01/26 05:49:06;;;;;;;4.28;0.43;;;29.30;99.90;;;;;;5037093;28;20025;-77
2022/01/26 05:51:33;;;;;;;3.83;0.50;;;29.30;99.90;;;;;;5035477;28;20021;-77
2022/01/26 05:54:02;;;;;;;2.38;0.70;;;29.20;99.90;;;;;;5036775;28;20043;-79
2022/01/26 05:56:30;;;;;;;1.88;0.40;;;29.20;99.90;;;;;;5035366;28;20025;-78
2022/01/26 05:58:58;;;;;;;5.53;0.70;;;29.10;99.90;;;;;;5036733;28;20022;-79
2022/01/26 06:01:26;;;;;;;2.15;0.60;;;29.30;99.90;;;;;;5036597;28;20032;-79
2022/01/26 06:03:54;;;;;;;2.88;0.40;;;29.20;99.90;;;;;;5036568;28;20018;-79
2022/01/26 06:06:21;;;;;;;2.08;0.45;;;29.30;99.90;;;;;;5035308;28;20034;-79
2022/01/26 06:08:49;;;;;;;2.97;0.68;;;29.40;99.90;;;;;;5035385;28;20032;-78
2022/01/26 06:11:16;;;;;;;2.58;0.68;;;29.30;99.90;;;;;;5036382;28;20493;-79
2022/01/26 06:13:43;;;;;;;4.10;0.63;;;29.30;99.90;;;;;;5036559;28;20021;-78
2022/01/26 06:16:11;;;;;;;2.65;0.50;;;29.20;99.90;;;;;;5036420;28;20032;-77
2022/01/26 06:18:38;;;;;;;1.45;0.40;;;29.10;99.90;;;;;;5036622;28;20425;-78
2022/01/26 06:21:07;;;;;;;1.45;0.38;;;29.20;99.90;;;;;;5035936;28;20070;-78
2022/01/26 06:23:34;;;;;;;1.10;0.30;;;29.50;99.90;;;;;;5035418;28;20065;-78
2022/01/26 06:26:02;;;;;;;4.38;0.35;;;29.30;99.90;;;;;;5035176;28;20482;-78
2022/01/26 06:28:29;;;;;;;1.13;0.38;;;29.50;99.90;;;;;;5036509;28;20021;-78
2022/01/26 06:31:00;;;;;;;1.73;0.40;;;29.50;99.90;;;;;;5036980;28;20018;-78
2022/01/26 06:33:33;;;;;;;2.33;0.40;;;29.30;99.90;;;;;;5036598;28;20074;-78
2022/01/26 06:36:01;;;;;;;2.25;0.60;;;29.40;99.90;;;;;;5036367;28;20382;-78
2022/01/26 06:38:30;;;;;;;1.90;0.60;;;29.50;99.90;;;;;;5036382;28;20026;-79
2022/01/26 06:41:00;;;;;;;2.50;0.50;;;29.50;99.90;;;;;;5035110;28;20034;-79
2022/01/26 06:43:30;;;;;;;3.47;0.40;;;29.80;99.90;;;;;;5035444;28;20017;-78
2022/01/26 06:46:02;;;;;;;2.50;0.55;;;30.00;99.90;;;;;;5036341;28;20045;-79
2022/01/26 06:48:46;;;;;;;2.47;0.55;;;30.40;99.90;;;;;;5036762;28;20121;-78
2022/01/26 06:51:14;;;;;;;2.40;0.40;;;30.00;99.90;;;;;;5034496;28;20026;-78
2022/01/26 06:53:41;;;;;;;3.33;0.45;;;29.20;99.90;;;;;;5036383;28;20025;-78
2022/01/26 06:56:09;;;;;;;1.70;0.30;;;29.10;99.90;;;;;;5035773;28;20112;-78
2022/01/26 06:58:36;;;;;;;2.10;0.50;;;29.00;99.90;;;;;;5033628;28;20380;-77
2022/01/26 07:01:04;;;;;;;2.38;0.50;;;29.20;99.90;;;;;;5034529;28;20025;-78
2022/01/26 07:03:31;;;;;;;1.13;0.30;;;29.70;99.90;;;;;;5036024;28;20029;-78
2022/01/26 07:05:58;;;;;;;3.40;0.30;;;29.70;99.90;;;;;;5034710;28;20383;-78
2022/01/26 07:08:26;;;;;;;2.25;0.40;;;30.00;99.90;;;;;;5034149;28;20029;-78
2022/01/26 07:10:53;;;;;;;2.42;0.55;;;30.10;99.90;;;;;;5036048;28;20430;-78
2022/01/26 07:13:23;;;;;;;2.15;0.50;;;29.90;99.90;;;;;;5035336;28;20021;-78
2022/01/26 07:21:26;;;;;;;2.78;0.73;;;29.90;99.90;;;;;;5035701;28;20028;-78
2022/01/26 07:23:55;;;;;;;2.15;0.43;;;30.10;99.90;;;;;;5034025;28;20026;-79
2022/01/26 07:26:27;;;;;;;2.00;0.30;;;29.90;99.90;;;;;;5034431;28;20543;-79
2022/01/26 07:28:59;;;;;;;3.67;0.70;;;29.50;99.90;;;;;;5034347;28;20029;-79
2022/01/26 07:31:27;;;;;;;5.25;0.70;;;28.50;99.90;;;;;;5034272;28;20368;-79
2022/01/26 07:33:56;;;;;;;5.22;0.50;;;28.30;99.90;;;;;;5033681;28;20021;-79
2022/01/26 07:36:25;;;;;;;2.92;0.80;;;27.90;99.90;;;;;;5036378;28;20022;-80
2022/01/26 07:38:54;;;;;;;3.60;0.60;;;27.70;99.90;;;;;;5034996;28;20501;-80
2022/01/26 07:41:22;;;;;;;1.85;0.50;;;27.50;99.90;;;;;;5036245;28;20501;-80
2022/01/26 07:43:50;;;;;;;3.65;0.43;;;27.10;99.90;;;;;;5034412;28;20033;-80
2022/01/26 07:46:17;;;;;;;3.22;0.60;;;26.70;99.90;;;;;;5034151;28;20052;-79
2022/01/26 07:48:45;;;;;;;4.57;0.85;;;26.60;99.90;;;;;;5034378;28;20393;-79
2022/01/26 07:51:15;;;;;;;4.28;0.50;;;26.60;99.90;;;;;;5035066;28;20037;-78
2022/01/26 07:53:44;;;;;;;5.22;0.68;;;26.20;99.90;;;;;;5033797;28;20029;-78
2022/01/26 07:56:12;;;;;;;3.25;0.70;;;25.90;99.90;;;;;;5033691;28;20033;-78
2022/01/26 07:58:40;;;;;;;1.90;0.45;;;25.60;99.90;;;;;;5035450;28;20482;-79
2022/01/26 08:01:08;;;;;;;5.30;0.73;;;25.60;99.90;;;;;;5035656;28;20440;-78
2022/01/26 08:03:36;;;;;;;2.75;0.75;;;25.50;99.90;;;;;;5034466;28;20036;-79
2022/01/26 08:06:14;;;;;;;4.43;0.70;;;25.40;99.90;;;;;;5034337;28;20018;-79
2022/01/26 08:08:41;;;;;;;4.85;1.15;;;25.30;99.90;;;;;;5034786;28;20033;-78
2022/01/26 08:11:09;;;;;;;5.00;1.30;;;25.30;99.90;;;;;;5033897;28;20490;-78
2022/01/26 08:13:36;;;;;;;3.15;0.80;;;25.20;99.90;;;;;;5036135;28;20111;-78
2022/01/26 08:16:04;;;;;;;4.20;0.82;;;25.00;99.90;;;;;;5036565;28;20111;-79
2022/01/26 08:18:31;;;;;;;4.90;0.82;;;24.80;99.90;;;;;;5034360;28;20026;-78
2022/01/26 08:21:05;;;;;;;3.75;0.70;;;24.70;99.90;;;;;;5034611;28;20084;-79
2022/01/26 08:23:35;;;;;;;2.55;0.73;;;24.70;99.90;;;;;;5034568;28;20036;-79
2022/01/26 08:26:03;;;;;;;4.63;0.93;;;24.50;99.90;;;;;;5035970;28;20445;-79
2022/01/26 08:28:37;;;;;;;3.63;0.73;;;24.30;99.90;;;;;;5038780;28;20029;-79
2022/01/26 08:31:04;;;;;;;3.20;1.02;;;24.20;99.90;;;;;;5036004;28;20021;-79
2022/01/26 08:33:32;;;;;;;4.13;0.77;;;24.10;99.90;;;;;;5035526;28;20031;-80
2022/01/26 08:35:59;;;;;;;5.03;1.10;;;23.90;99.90;;;;;;5033399;28;20022;-78
2022/01/26 08:38:27;;;;;;;4.30;0.95;;;23.90;99.90;;;;;;5033949;28;20060;-78
2022/01/26 08:40:54;;;;;;;4.72;0.98;;;23.90;99.90;;;;;;5034464;28;20384;-79
2022/01/26 08:43:21;;;;;;;2.78;1.10;;;23.80;99.90;;;;;;5034616;28;20052;-80
2022/01/26 08:45:49;;;;;;;6.38;1.00;;;23.60;99.90;;;;;;5033475;28;20044;-80
2022/01/26 08:48:17;;;;;;;5.07;1.40;;;23.50;99.90;;;;;;5033798;28;20029;-79
2022/01/26 08:50:44;;;;;;;5.72;0.85;;;23.40;99.90;;;;;;5035341;28;20071;-80
2022/01/26 08:53:11;;;;;;;5.88;0.98;;;23.30;99.90;;;;;;5034044;28;20118;-80
2022/01/26 08:55:39;;;;;;;5.43;0.90;;;23.30;99.90;;;;;;5034075;28;20129;-79
2022/01/26 08:58:06;;;;;;;2.72;0.57;;;23.20;99.90;;;;;;5034261;28;20035;-79
2022/01/26 09:00:35;;;;;;;5.85;1.13;;;23.20;99.90;;;;;;5034696;28;20079;-79
2022/01/26 09:03:03;;;;;;;3.63;0.70;;;23.20;99.90;;;;;;5034174;28;20172;-79
2022/01/26 09:05:30;;;;;;;4.88;0.80;;;23.00;99.90;;;;;;5032562;28;20029;-78
2022/01/26 09:07:58;;;;;;;3.53;0.98;;;23.00;99.90;;;;;;5032684;28;20025;-79
2022/01/26 09:10:28;;;;;;;5.78;1.05;;;23.00;99.90;;;;;;5033741;28;20049;-79
2022/01/26 09:12:56;;;;;;;2.67;0.60;;;23.00;99.90;;;;;;5034103;28;20104;-79
2022/01/26 09:15:28;;;;;;;6.85;1.00;;;22.90;99.90;;;;;;5032905;28;20030;-79
2022/01/26 09:18:01;;;;;;;2.28;0.65;;;22.90;99.90;;;;;;5033709;28;20079;-79
2022/01/26 09:20:29;;;;;;;4.45;1.42;;;22.80;99.90;;;;;;5033029;28;20071;-80
2022/01/26 09:22:57;;;;;;;2.60;0.55;;;22.70;99.90;;;;;;5038427;28;20505;-80
2022/01/26 09:25:24;;;;;;;2.72;0.82;;;22.70;99.90;;;;;;5038833;28;20425;-79
2022/01/26 09:27:51;;;;;;;3.55;0.60;;;22.70;99.90;;;;;;5036065;28;20079;-79
2022/01/26 09:30:19;;;;;;;3.75;0.65;;;22.60;99.90;;;;;;5037967;28;20013;-77
2022/01/26 09:32:46;;;;;;;4.05;1.15;;;22.60;99.90;;;;;;5037591;28;20053;-78
2022/01/26 09:35:13;;;;;;;5.10;1.00;;;22.50;99.90;;;;;;5037513;28;20025;-79
2022/01/26 09:37:41;;;;;;;4.75;1.00;;;22.50;99.90;;;;;;5036410;28;20056;-78
2022/01/26 09:40:09;;;;;;;4.15;0.77;;;22.50;99.90;;;;;;5036018;28;20087;-78
2022/01/26 09:42:37;;;;;;;5.60;0.90;;;22.40;99.90;;;;;;5037609;28;20022;-78
2022/01/26 09:45:06;;;;;;;5.47;1.02;;;22.40;99.90;;;;;;5036653;28;20402;-78
2022/01/26 09:47:33;;;;;;;8.02;1.20;;;22.30;99.90;;;;;;5037176;28;20029;-78
2022/01/26 09:50:03;;;;;;;3.92;0.73;;;22.30;99.90;;;;;;5036026;28;20048;-78
2022/01/26 09:52:36;;;;;;;4.10;0.88;;;22.30;99.90;;;;;;5037255;28;20482;-79
2022/01/26 09:55:06;;;;;;;2.58;0.63;;;22.30;99.90;;;;;;5035946;28;20021;-78
2022/01/26 09:57:33;;;;;;;4.47;1.08;;;22.20;99.90;;;;;;5036190;28;20057;-78
2022/01/26 10:00:01;;;;;;;3.22;0.95;;;22.20;99.90;;;;;;5035632;28;20030;-78
2022/01/26 10:02:31;;;;;;;5.25;0.90;;;22.20;99.90;;;;;;5037154;28;20104;-78
2022/01/26 10:05:01;;;;;;;;;;;22.10;99.90;;;;;;5038006;28;20462;-78
2022/01/26 10:15:36;;;;;;;3.17;0.88;;;22.00;99.90;;;;;;5036570;28;20135;-77
2022/01/26 10:18:16;;;;;;;5.60;0.85;;;22.00;99.90;;;;;;5036297;28;20032;-78
2022/01/26 10:20:43;;;;;;;4.67;0.70;;;22.00;99.90;;;;;;5036121;28;20055;-78
2022/01/26 10:23:20;;;;;;;5.75;0.70;;;22.00;99.90;;;;;;5034972;28;20656;-78
2022/01/26 10:26:12;;;;;;;3.55;0.88;;;22.00;99.90;;;;;;5035212;28;20163;-77
2022/01/26 10:28:50;;;;;;;3.95;0.70;;;22.00;99.90;;;;;;5036232;28;20022;-78
2022/01/26 10:31:22;;;;;;;9.13;1.17;;;22.00;99.90;;;;;;5036548;28;20024;-78
2022/01/26 10:34:06;;;;;;;3.28;0.70;;;21.90;99.90;;;;;;5034218;28;20056;-78
2022/01/26 10:36:39;;;;;;;6.68;1.20;;;21.90;99.90;;;;;;5034750;28;20029;-78
2022/01/26 10:39:12;;;;;;;5.78;1.05;;;21.90;99.90;;;;;;5035770;28;20112;-78
2022/01/26 10:41:42;;;;;;;2.97;0.93;;;21.90;99.90;;;;;;5035772;28;20097;-78
2022/01/26 10:44:09;;;;;;;;;;;21.90;99.90;;;;;;5019058;28;20036;-78
2022/01/26 10:46:40;;;;;;;6.65;1.05;;;21.80;99.90;;;;;;5034486;28;19924;-78
2022/01/26 10:49:42;;;;;;;3.45;0.90;;;21.70;99.90;;;;;;5034539;28;20028;-77
2022/01/26 10:52:20;;;;;;;5.45;1.17;;;21.70;99.90;;;;;;5035292;28;20032;-77
2022/01/26 10:54:49;;;;;;;4.55;1.27;;;21.70;99.90;;;;;;5034201;28;20453;-77
2022/01/26 10:57:17;;;;;;;2.97;0.68;;;21.70;99.90;;;;;;5034013;28;20068;-77
2022/01/26 10:59:46;;;;;;;4.10;0.88;;;21.70;99.90;;;;;;5035322;28;20029;-77
2022/01/26 11:02:20;;;;;;;6.22;0.90;;;21.80;99.90;;;;;;5034068;28;20028;-77
2022/01/26 11:04:49;;;;;;;4.20;0.80;;;21.80;99.90;;;;;;5035155;28;20033;-77
2022/01/26 11:07:17;;;;;;;4.05;1.17;;;21.80;99.90;;;;;;5033810;28;20087;-78
2022/01/26 11:09:47;;;;;;;3.05;0.60;;;21.80;99.90;;;;;;5035360;28;20022;-77
2022/01/26 11:12:26;;;;;;;3.67;0.70;;;21.80;99.90;;;;;;5035408;28;20391;-77
2022/01/26 11:15:04;;;;;;;5.80;0.90;;;21.80;99.90;;;;;;5035648;28;20104;-77
2022/01/26 11:17:35;;;;;;;2.95;0.50;;;21.80;99.90;;;;;;5034121;28;20029;-77
2022/01/26 11:20:14;;;;;;;;;;;21.80;99.90;;;;;;5034510;28;20029;-77
2022/01/26 11:22:57;;;;;;;6.50;0.75;;;21.70;99.90;;;;;;5035175;28;20344;-77
2022/01/26 11:25:28;;;;;;;4.70;0.70;;;21.80;99.90;;;;;;5035301;28;20026;-76
2022/01/26 11:27:56;;;;;;;4.10;0.90;;;21.80;99.90;;;;;;5033871;28;20021;-77
2022/01/26 11:30:34;;;;;;;5.25;0.70;;;21.70;99.90;;;;;;5033650;28;20026;-76
2022/01/26 11:33:04;;;;;;;4.25;0.80;;;21.70;99.90;;;;;;5034920;28;20018;-76
2022/01/26 11:35:35;;;;;;;2.17;0.63;;;21.80;99.90;;;;;;5034933;28;20022;-77
2022/01/26 11:46:31;;;;;;;3.25;0.70;;;21.60;99.90;;;;;;5035035;28;20052;-77
2022/01/26 11:49:10;;;;;;;4.80;0.80;;;21.60;99.90;;;;;;5035028;28;20029;-77
2022/01/26 11:51:47;;;;;;;3.75;0.60;;;21.70;99.90;;;;;;5034948;28;20360;-77
2022/01/26 11:54:24;;;;;;;3.35;0.60;;;21.60;99.90;;;;;;5035174;28;20402;-78
2022/01/26 11:57:03;;;;;;;5.03;0.70;;;21.60;99.90;;;;;;5035287;28;20104;-79
2022/01/26 11:59:33;;;;;;;3.80;0.60;;;21.50;99.90;;;;;;5035914;28;20025;-79
2022/01/26 12:02:06;;;;;;;5.13;0.80;;;21.50;99.90;;;;;;5033810;28;20028;-79
2022/01/26 12:04:36;;;;;;;4.57;0.70;;;21.50;99.90;;;;;;5033539;28;20038;-78
2022/01/26 12:07:10;;;;;;;;;;;21.50;99.90;;;;;;5033816;28;20029;-78
2022/01/26 12:09:40;;;;;;;3.92;0.85;;;21.50;99.90;;;;;;5033261;28;19905;-78
2022/01/26 12:12:15;;;;;;;3.53;0.98;;;21.40;99.90;;;;;;5034303;28;20060;-78
2022/01/26 12:14:46;;;;;;;3.70;0.90;;;21.40;99.90;;;;;;5033266;28;20550;-78
2022/01/26 12:17:30;;;;;;;5.00;0.80;;;21.30;99.90;;;;;;5034623;28;20022;-78
2022/01/26 12:37:36;;;;;;;4.30;0.70;;;21.50;99.90;;;;;;5034001;28;20521;-79
2022/01/26 12:45:25;;;;;;;3.97;0.80;;;21.60;99.90;;;;;;5033801;28;20495;-78
2022/01/26 12:47:58;;;;;;;5.55;0.70;;;21.70;99.90;;;;;;5032533;28;20021;-78
2022/01/26 12:50:26;;;;;;;3.05;0.70;;;21.80;99.90;;;;;;5033868;28;20018;-78
2022/01/26 12:53:04;;;;;;;4.45;0.60;;;21.90;99.90;;;;;;5033950;28;20044;-79
2022/01/26 12:55:35;;;;;;;5.10;0.80;;;21.90;99.90;;;;;;5031880;28;20026;-79
2022/01/26 12:58:04;;;;;;;1.88;0.50;;;21.90;99.90;;;;;;5032483;28;20509;-79
2022/01/26 13:00:43;;;;;;;3.33;0.70;;;21.90;99.90;;;;;;5032339;28;20391;-79
2022/01/26 13:03:12;;;;;;;3.25;0.50;;;21.90;99.90;;;;;;5033748;28;20021;-79
2022/01/26 13:05:41;;;;;;;5.72;0.77;;;21.80;99.90;;;;;;5032197;28;20037;-79
2022/01/26 13:08:10;;;;;;;4.40;0.95;;;21.80;99.90;;;;;;5032246;28;20116;-78
2022/01/26 13:10:38;;;;;;;4.82;0.65;;;21.80;99.90;;;;;;5033846;28;20026;-79
2022/01/26 13:13:22;;;;;;;2.42;0.40;;;21.80;99.90;;;;;;5033773;28;20021;-78
2022/01/26 13:16:08;;;;;;;3.45;0.57;;;21.80;99.90;;;;;;5032210;28;20044;-78
2022/01/26 13:24:47;;;;;;;5.30;0.80;;;21.70;99.90;;;;;;5033453;28;20084;-79
2022/01/26 13:27:34;;;;;;;3.38;0.60;;;21.80;99.90;;;;;;5032265;28;20079;-79
2022/01/26 13:30:46;;;;;;;4.10;0.80;;;21.80;99.90;;;;;;5031997;28;20461;-79
2022/01/26 13:33:53;;;;;;;2.75;0.70;;;21.90;99.90;;;;;;5034084;28;20097;-79
2022/01/26 13:36:33;;;;;;;3.28;0.65;;;21.90;99.90;;;;;;5032513;28;20037;-79
2022/01/26 13:39:20;;;;;;;4.78;0.70;;;21.90;99.90;;;;;;5032459;28;20022;-77
2022/01/26 13:52:53;;;;;;;5.45;0.75;;;21.90;99.90;;;;;;5033244;28;20538;-78
2022/01/26 14:00:23;;;;;;;3.05;0.70;;;21.80;99.90;;;;;;5032269;28;20398;-77
2022/01/26 14:02:57;;;;;;;3.15;0.52;;;21.80;99.90;;;;;;5016326;28;20482;-78
2022/01/26 14:05:25;;;;;;;2.63;0.50;;;21.80;99.90;;;;;;5032979;28;20022;-77
2022/01/26 14:07:56;;;;;;;2.47;0.73;;;21.80;99.90;;;;;;5035126;28;20029;-77
2022/01/26 14:10:24;;;;;;;4.35;0.60;;;21.70;99.90;;;;;;5035400;28;20121;-77
2022/01/26 14:12:52;;;;;;;4.72;1.08;;;21.60;99.90;;;;;;5035139;28;20032;-77
2022/01/26 14:15:26;;;;;;;3.83;0.63;;;21.50;99.90;;;;;;5019011;28;20030;-77
2022/01/26 14:18:05;;;;;;;3.38;0.80;;;21.40;99.90;;;;;;5036741;28;20021;-77
2022/01/26 14:20:53;;;;;;;5.97;0.85;;;21.30;99.90;;;;;;5035253;28;20022;-77
2022/01/26 14:26:00;;;;;;;2.70;0.65;;;21.20;99.90;;;;;;5036504;28;20025;-77
2022/01/26 14:28:33;;;;;;;3.65;0.68;;;21.10;99.90;;;;;;5036346;28;20026;-77
2022/01/26 14:34:23;;;;;;;3.17;0.70;;;20.90;99.90;;;;;;5036259;28;20163;-78
2022/01/26 14:39:41;;;;;;;3.75;0.73;;;20.70;99.90;;;;;;5036114;28;20028;-77
2022/01/26 15:21:27;;;;;;;3.55;0.60;;;19.90;99.90;;;;;;5035115;28;20398;-78
2022/01/26 15:33:47;;;;;;;3.30;0.68;;;19.80;99.90;;;;;;5035368;28;20014;-77
2022/01/26 15:44:51;;;;;;;3.30;0.95;;;19.70;99.90;;;;;;5034865;28;20063;-77
2022/01/26 15:50:25;;;;;;;4.15;0.80;;;19.70;99.90;;;;;;5034970;28;20509;-77
2022/01/26 15:58:20;;;;;;;3.75;1.00;;;19.70;99.90;;;;;;5035455;28;20395;-77
2022/01/26 16:06:24;;;;;;;4.20;0.93;;;19.80;99.90;;;;;;5035198;28;20036;-77
2022/01/26 17:11:57;;;;;;;3.03;0.70;;;20.90;99.90;;;;;;5033638;28;20048;-77
2022/01/26 18:15:18;;;;;;;4.28;0.80;;;20.70;99.90;;;;;;5036402;28;20028;-77
2022/01/26 18:49:18;;;;;;;3.20;0.70;;;19.70;99.90;;;;;;5035742;28;20025;-77
2022/01/26 18:51:56;;;;;;;2.63;0.63;;;19.70;99.90;;;;;;5034180;28;20432;-77
2022/01/26 18:54:28;;;;;;;5.80;0.70;;;19.60;99.90;;;;;;5034331;28;20026;-76
2022/01/26 18:56:59;;;;;;;4.43;1.17;;;19.60;99.90;;;;;;5034068;28;20389;-76
2022/01/26 18:59:27;;;;;;;5.10;0.80;;;19.60;99.90;;;;;;5018016;28;20029;-76
2022/01/26 19:01:56;;;;;;;3.92;1.05;;;19.60;99.90;;;;;;5035080;28;20022;-77
2022/01/26 19:04:39;;;;;;;2.90;0.60;;;19.60;99.90;;;;;;5034718;28;20095;-77
2022/01/26 19:07:07;;;;;;;3.90;0.75;;;19.50;99.90;;;;;;5033722;28;20021;-76
2022/01/26 19:09:40;;;;;;;3.15;0.85;;;19.50;99.90;;;;;;5034936;28;20021;-76
2022/01/26 19:12:11;;;;;;;7.20;1.20;;;19.50;99.90;;;;;;5034933;28;20018;-76
2022/01/26 19:14:40;;;;;;;3.83;0.80;;;19.50;99.90;;;;;;5033650;28;20037;-76
2022/01/26 19:17:21;;;;;;;3.40;0.95;;;19.40;99.90;;;;;;5033623;28;20025;-77
2022/01/26 19:20:07;;;;;;;2.85;1.20;;;19.40;99.90;;;;;;5033566;28;20093;-76
2022/01/26 19:25:27;;;;;;;6.22;1.60;;;19.40;99.90;;;;;;5034690;28;20029;-76
2022/01/26 19:28:07;;;;;;;5.15;1.30;;;19.40;99.90;;;;;;5033444;28;20028;-76
2022/01/26 19:39:58;;;;;;;4.25;1.23;;;19.20;99.90;;;;;;5034995;28;20032;-77
2022/01/26 19:44:45;;;;;;;4.63;1.40;;;19.10;99.90;;;;;;5032873;28;20517;-76
2022/01/26 19:52:43;;;;;;;5.03;1.65;;;19.20;99.90;;;;;;5032154;28;20083;-78
2022/01/26 19:55:10;;;;;;;5.53;1.40;;;19.30;99.90;;;;;;5033035;28;20056;-78
2022/01/26 19:57:38;;;;;;;5.38;1.27;;;19.30;99.90;;;;;;5033247;28;20049;-79
2022/01/26 20:00:06;;;;;;;3.30;1.20;;;19.30;99.90;;;;;;5034361;28;20017;-78
2022/01/26 20:02:33;;;;;;;4.63;1.00;;;19.40;99.90;;;;;;5034802;28;20022;-78